Time;durP1;ratioP1;P1;durP2;ratioP2;P2;SDS_P1;SDS_P2;PMS_P1;PMS_P2;Temp;Humidity;BMP_temperature;BMP_pressure;BME280_temperature;BME280_humidity;BME280_pressure;Samples;Min_cycle;Max_cycle;Signal;HPM_P1;HPM_P2
2022/03/29 00:03:26;;;;;;;49.87;25.80;;;10.30;84.10;;;;;;10448620;28;20421;-81
2022/03/29 00:08:27;;;;;;;46.63;24.70;;;10.30;83.80;;;;;;10448289;28;20060;-83
2022/03/29 00:13:27;;;;;;;58.97;29.70;;;10.40;83.70;;;;;;10446676;28;20056;-83
2022/03/29 00:18:28;;;;;;;64.83;30.37;;;10.50;83.60;;;;;;10429818;28;20122;-83
2022/03/29 00:23:29;;;;;;;62.07;29.87;;;10.40;84.00;;;;;;10448007;28;20033;-83
2022/03/29 00:28:29;;;;;;;65.07;31.17;;;10.40;83.70;;;;;;10450118;28;20052;-81
2022/03/29 00:33:30;;;;;;;59.07;30.47;;;10.50;84.30;;;;;;10455588;28;20044;-84
2022/03/29 00:38:30;;;;;;;59.17;29.97;;;10.50;84.50;;;;;;10454930;28;20136;-83
2022/03/29 00:43:31;;;;;;;65.90;32.37;;;10.50;84.60;;;;;;10454907;28;20112;-82
2022/03/29 00:48:32;;;;;;;63.07;30.67;;;10.60;86.60;;;;;;10454611;28;20032;-80
2022/03/29 00:53:33;;;;;;;59.70;30.70;;;10.50;90.80;;;;;;10454133;28;20037;-83
2022/03/29 00:58:34;;;;;;;62.97;30.50;;;10.40;93.90;;;;;;10454257;28;20404;-81
2022/03/29 01:03:34;;;;;;;58.30;31.20;;;10.40;95.70;;;;;;10453697;28;20036;-81
2022/03/29 01:08:35;;;;;;;58.73;30.90;;;10.30;99.90;;;;;;10452914;28;20574;-81
2022/03/29 01:13:36;;;;;;;57.53;30.03;;;10.30;99.90;;;;;;10453214;28;20049;-81
2022/03/29 01:18:37;;;;;;;53.60;30.53;;;10.10;99.90;;;;;;10452774;28;20507;-82
2022/03/29 01:23:38;;;;;;;56.10;29.33;;;9.90;99.90;;;;;;10453728;28;20112;-81
2022/03/29 01:28:39;;;;;;;52.07;26.83;;;9.70;99.90;;;;;;10453826;28;20045;-82
2022/03/29 01:33:42;;;;;;;54.27;28.37;;;9.40;99.90;;;;;;10452872;28;20047;-81
2022/03/29 01:38:43;;;;;;;50.00;27.77;;;9.20;99.90;;;;;;10452371;28;20037;-81
2022/03/29 01:43:44;;;;;;;52.83;27.77;;;8.80;99.90;;;;;;10433966;28;20041;-81
2022/03/29 01:48:44;;;;;;;54.70;25.97;;;8.40;99.90;;;;;;10452156;28;20370;-82
2022/03/29 01:53:51;;;;;;;50.17;25.50;;;8.30;99.90;;;;;;10452979;28;20128;-82
2022/03/29 01:58:52;;;;;;;53.27;25.63;;;8.20;99.90;;;;;;10452285;28;20401;-84
2022/03/29 02:03:53;;;;;;;55.10;27.30;;;8.10;99.90;;;;;;10451773;28;20032;-84
2022/03/29 02:08:53;;;;;;;67.43;31.53;;;8.10;99.90;;;;;;10451446;28;20043;-81
2022/03/29 02:13:54;;;;;;;78.60;38.20;;;8.00;99.90;;;;;;10450796;28;20045;-80
2022/03/29 02:18:55;;;;;;;68.13;31.90;;;8.00;99.90;;;;;;10442662;28;20090;-82
2022/03/29 02:23:55;;;;;;;55.40;28.73;;;7.90;99.90;;;;;;10421534;28;20564;-83
2022/03/29 02:28:56;;;;;;;53.40;26.83;;;7.80;99.90;;;;;;10450235;28;20048;-81
2022/03/29 02:33:57;;;;;;;58.33;27.93;;;7.70;99.90;;;;;;10450287;28;20063;-82
2022/03/29 02:38:57;;;;;;;70.37;34.40;;;7.70;99.90;;;;;;10450367;28;20041;-81
2022/03/29 02:43:58;;;;;;;74.93;38.77;;;7.50;99.90;;;;;;10431989;28;20037;-82
2022/03/29 02:48:58;;;;;;;68.83;36.43;;;7.40;99.90;;;;;;10449886;28;20036;-84
2022/03/29 02:53:59;;;;;;;69.80;36.57;;;7.30;99.90;;;;;;10449044;28;20045;-83
2022/03/29 02:59:00;;;;;;;68.37;33.37;;;7.20;99.90;;;;;;10420480;28;20029;-82
2022/03/29 03:04:02;;;;;;;66.17;32.77;;;7.20;99.90;;;;;;10451644;28;20020;-82
2022/03/29 03:09:02;;;;;;;60.80;30.67;;;7.10;99.90;;;;;;10452788;28;20032;-81
2022/03/29 03:14:03;;;;;;;64.73;33.40;;;7.00;99.90;;;;;;10449641;28;20037;-80
2022/03/29 03:19:04;;;;;;;63.67;30.23;;;7.10;99.90;;;;;;10431188;28;20025;-80
2022/03/29 03:24:05;;;;;;;67.73;32.03;;;7.10;99.90;;;;;;10449264;28;20086;-83
2022/03/29 03:29:05;;;;;;;68.40;32.43;;;7.10;99.90;;;;;;10430333;28;20161;-84
2022/03/29 03:34:06;;;;;;;67.37;32.60;;;7.20;99.90;;;;;;10448272;28;20036;-81
2022/03/29 03:39:06;;;;;;;64.37;31.83;;;7.30;99.90;;;;;;10449150;28;20116;-81
2022/03/29 03:44:07;;;;;;;74.93;38.33;;;7.30;99.90;;;;;;10448458;28;20107;-79
2022/03/29 03:49:08;;;;;;;80.77;39.90;;;7.20;99.90;;;;;;10449198;28;20052;-82
2022/03/29 03:54:08;;;;;;;79.57;38.93;;;7.10;99.90;;;;;;10431118;28;20445;-80
2022/03/29 03:59:09;;;;;;;77.50;37.73;;;7.00;99.90;;;;;;10429375;28;20025;-79
2022/03/29 04:04:09;;;;;;;62.70;32.60;;;6.90;99.90;;;;;;10434641;28;20033;-85
2022/03/29 04:09:10;;;;;;;68.03;34.13;;;6.90;99.90;;;;;;10449875;28;20427;-82
2022/03/29 04:14:11;;;;;;;67.37;34.37;;;7.10;99.90;;;;;;10455702;28;20147;-82
2022/03/29 04:19:12;;;;;;;68.07;32.77;;;6.90;99.90;;;;;;10455637;28;20051;-83
2022/03/29 04:24:13;;;;;;;77.70;38.50;;;6.90;99.90;;;;;;10437119;28;20083;-84
2022/03/29 04:29:14;;;;;;;85.67;43.20;;;6.80;99.90;;;;;;10454258;28;20128;-83
2022/03/29 04:34:15;;;;;;;85.23;42.47;;;6.80;99.90;;;;;;10449623;28;20037;-84
2022/03/29 04:39:16;;;;;;;102.33;48.27;;;6.60;99.90;;;;;;10455899;28;20388;-83
2022/03/29 04:44:17;;;;;;;95.27;47.90;;;6.50;99.90;;;;;;10433607;28;20052;-83
2022/03/29 04:49:18;;;;;;;91.70;47.67;;;6.50;99.90;;;;;;10452308;28;20518;-85
2022/03/29 04:54:18;;;;;;;91.40;46.93;;;6.60;99.90;;;;;;10428699;28;20029;-84
2022/03/29 04:59:19;;;;;;;113.80;62.30;;;6.60;99.90;;;;;;10453867;28;20029;-82
2022/03/29 05:04:20;;;;;;;111.30;60.47;;;6.70;99.90;;;;;;10450703;28;20022;-85
2022/03/29 05:09:20;;;;;;;100.03;55.67;;;6.70;99.90;;;;;;10436394;28;20377;-84
2022/03/29 05:14:21;;;;;;;106.63;57.27;;;6.90;99.90;;;;;;10453173;28;20033;-82
2022/03/29 05:19:22;;;;;;;124.67;65.17;;;7.20;99.90;;;;;;10455359;28;20469;-83
2022/03/29 05:24:22;;;;;;;112.50;60.57;;;7.50;99.90;;;;;;10454482;28;20052;-82
2022/03/29 05:29:25;;;;;;;109.77;58.33;;;7.70;99.90;;;;;;10452344;28;20021;-84
2022/03/29 05:34:26;;;;;;;108.23;54.33;;;7.80;99.90;;;;;;10434114;28;20033;-84
2022/03/29 05:39:26;;;;;;;103.13;53.40;;;8.00;99.90;;;;;;10452447;28;20059;-82
2022/03/29 05:44:27;;;;;;;100.87;52.17;;;8.20;99.90;;;;;;10449642;28;20384;-83
2022/03/29 05:49:28;;;;;;;86.60;46.93;;;8.40;99.90;;;;;;10451076;28;20147;-87
2022/03/29 05:54:30;;;;;;;92.63;50.03;;;8.40;99.90;;;;;;10452051;28;20569;-83
2022/03/29 05:59:30;;;;;;;85.13;46.03;;;8.60;99.90;;;;;;10434590;28;20017;-81
2022/03/29 06:04:31;;;;;;;54.07;28.87;;;8.70;99.90;;;;;;10452667;28;20017;-82
2022/03/29 06:09:33;;;;;;;54.70;28.03;;;8.90;99.90;;;;;;10451842;28;20056;-85
2022/03/29 06:14:34;;;;;;;44.97;24.47;;;9.10;99.90;;;;;;10452271;28;20044;-83
2022/03/29 06:19:36;;;;;;;40.57;23.40;;;9.20;99.90;;;;;;10451763;28;20029;-82
2022/03/29 06:24:37;;;;;;;39.27;22.40;;;9.30;99.90;;;;;;10451060;28;20099;-83
2022/03/29 06:29:39;;;;;;;46.40;27.93;;;9.40;99.90;;;;;;10450724;28;20487;-82
2022/03/29 06:34:39;;;;;;;45.50;26.13;;;9.60;99.90;;;;;;10450944;28;20124;-83
2022/03/29 06:39:40;;;;;;;45.10;27.40;;;9.80;99.90;;;;;;10451123;28;20104;-86
2022/03/29 06:44:40;;;;;;;46.00;25.17;;;9.90;99.90;;;;;;10451163;28;20028;-82
2022/03/29 06:49:41;;;;;;;60.30;35.87;;;9.90;99.90;;;;;;10450784;28;20033;-84
2022/03/29 06:54:42;;;;;;;43.20;25.63;;;10.20;99.90;;;;;;10450495;28;20495;-82
2022/03/29 06:59:43;;;;;;;62.47;32.10;;;10.20;99.90;;;;;;10450489;28;20029;-83
2022/03/29 07:04:43;;;;;;;59.30;31.37;;;10.20;99.90;;;;;;10450079;28;20135;-82
2022/03/29 07:15:03;;;;;;;31.70;16.83;;;10.40;99.90;;;;;;10450321;28;20036;-87
2022/03/29 07:20:04;;;;;;;30.77;16.83;;;10.40;99.90;;;;;;10450256;28;20457;-82
2022/03/29 07:25:06;;;;;;;31.53;14.60;;;10.30;99.90;;;;;;10450149;28;20079;-83
2022/03/29 07:30:07;;;;;;;27.33;15.93;;;10.40;99.90;;;;;;10449757;28;20037;-82
2022/03/29 07:35:08;;;;;;;24.67;14.07;;;10.70;99.90;;;;;;10430967;28;20043;-84
2022/03/29 07:40:11;;;;;;;25.93;14.77;;;10.80;99.90;;;;;;10454177;28;20029;-83
2022/03/29 07:45:12;;;;;;;26.17;14.63;;;10.90;99.90;;;;;;10458006;28;20029;-86
2022/03/29 07:50:12;;;;;;;27.67;14.02;;;11.00;99.90;;;;;;10457942;28;20104;-81
2022/03/29 07:55:13;;;;;;;26.23;13.57;;;11.20;99.90;;;;;;10457307;28;20040;-84
2022/03/29 08:00:33;;;;;;;22.30;11.48;;;11.20;99.90;;;;;;10439555;28;20468;-85
2022/03/29 08:05:34;;;;;;;25.38;12.32;;;11.30;99.10;;;;;;10457087;28;20447;-83
2022/03/29 08:10:35;;;;;;;22.67;12.90;;;11.10;96.40;;;;;;10456490;28;20028;-82
2022/03/29 08:15:37;;;;;;;24.83;12.88;;;11.10;97.60;;;;;;10456533;28;20033;-85
2022/03/29 08:20:39;;;;;;;26.30;13.55;;;11.10;97.80;;;;;;10456879;28;20025;-83
2022/03/29 08:25:42;;;;;;;25.77;13.98;;;11.20;97.10;;;;;;10456249;28;20055;-82
2022/03/29 08:30:43;;;;;;;24.52;13.35;;;11.30;96.70;;;;;;10456373;28;20032;-84
2022/03/29 08:35:45;;;;;;;26.95;13.70;;;11.60;96.40;;;;;;10456083;28;20033;-86
2022/03/29 08:40:46;;;;;;;21.95;12.57;;;11.80;93.70;;;;;;10456225;28;20108;-83
2022/03/29 08:45:50;;;;;;;23.50;12.30;;;11.90;93.60;;;;;;10455837;28;20396;-82
2022/03/29 08:50:57;;;;;;;25.13;13.13;;;12.30;92.80;;;;;;10455060;28;20040;-82
2022/03/29 08:55:58;;;;;;;26.48;13.93;;;12.50;92.10;;;;;;10455273;28;20804;-82
2022/03/29 09:00:58;;;;;;;21.42;12.27;;;12.70;91.60;;;;;;10455101;28;20086;-87
2022/03/29 09:06:07;;;;;;;25.17;15.43;;;12.90;89.60;;;;;;10455132;28;20025;-89
2022/03/29 09:11:08;;;;;;;22.33;11.70;;;13.10;88.90;;;;;;10454256;28;20029;-82
2022/03/29 09:16:29;;;;;;;20.45;10.95;;;13.20;86.10;;;;;;10454169;28;20075;-83
2022/03/29 09:21:41;;;;;;;16.17;9.18;;;13.10;85.00;;;;;;10453945;28;20082;-82
2022/03/29 09:26:45;;;;;;;26.35;13.95;;;13.10;84.70;;;;;;10453963;28;20087;-82
2022/03/29 09:31:59;;;;;;;33.88;17.20;;;13.10;85.40;;;;;;10453828;28;20029;-82
2022/03/29 09:37:01;;;;;;;28.33;15.70;;;13.20;85.80;;;;;;10453614;28;20033;-83
2022/03/29 09:42:12;;;;;;;18.63;10.77;;;13.40;85.70;;;;;;10453156;28;20493;-82
2022/03/29 09:47:15;;;;;;;22.52;11.63;;;13.40;82.90;;;;;;10453534;28;20472;-87
2022/03/29 09:52:23;;;;;;;19.05;10.43;;;13.20;82.10;;;;;;10453006;28;20127;-83
2022/03/29 09:57:39;;;;;;;19.80;10.25;;;13.20;83.20;;;;;;10452794;28;20016;-84
2022/03/29 10:02:41;;;;;;;30.33;16.42;;;13.20;83.00;;;;;;10451597;28;20029;-83
2022/03/29 10:09:25;;;;;;;22.45;12.43;;;13.40;83.00;;;;;;10452416;28;20017;-84
2022/03/29 10:13:23;;;;;;;26.15;13.32;;;13.50;82.70;;;;;;10451784;28;20045;-83
2022/03/29 10:18:27;;;;;;;26.95;12.90;;;13.60;82.40;;;;;;10452910;28;20040;-82
2022/03/29 10:23:29;;;;;;;28.73;12.90;;;13.80;81.90;;;;;;10451436;28;20055;-86
2022/03/29 10:28:30;;;;;;;22.40;13.07;;;13.90;81.40;;;;;;10451405;28;20041;-82
2022/03/29 10:33:33;;;;;;;20.15;11.63;;;13.90;80.50;;;;;;10451559;28;20049;-86
2022/03/29 10:38:49;;;;;;;23.25;12.48;;;13.90;79.40;;;;;;10451984;28;20063;-85
2022/03/29 10:44:08;;;;;;;22.58;13.07;;;14.00;79.60;;;;;;10433462;28;20037;-82
2022/03/29 10:49:22;;;;;;;21.65;11.18;;;14.00;79.80;;;;;;10433068;28;20033;-82
2022/03/29 10:54:29;;;;;;;23.15;12.70;;;14.00;78.50;;;;;;10450587;28;20048;-82
2022/03/29 10:59:31;;;;;;;24.52;13.13;;;14.00;78.60;;;;;;10450118;28;20021;-82
2022/03/29 11:04:31;;;;;;;20.17;10.43;;;13.90;78.60;;;;;;10450137;28;20067;-86
2022/03/29 11:09:34;;;;;;;27.38;13.70;;;13.80;78.10;;;;;;10449910;28;20434;-82
2022/03/29 11:14:37;;;;;;;29.63;15.85;;;13.80;79.20;;;;;;10449755;28;20029;-82
2022/03/29 11:19:48;;;;;;;24.67;13.30;;;14.00;78.40;;;;;;10449894;28;20452;-83
2022/03/29 11:24:50;;;;;;;23.90;12.50;;;14.20;77.50;;;;;;10449474;28;20052;-84
2022/03/29 11:29:51;;;;;;;20.17;10.68;;;14.10;75.80;;;;;;10449818;28;20544;-83
2022/03/29 11:34:57;;;;;;;23.20;13.05;;;14.20;76.60;;;;;;10449871;28;20036;-82
2022/03/29 11:39:59;;;;;;;22.80;12.32;;;14.50;77.10;;;;;;10449433;28;20029;-85
2022/03/29 11:45:06;;;;;;;20.20;12.20;;;14.60;75.00;;;;;;10449099;28;20095;-83
2022/03/29 11:50:07;;;;;;;20.88;12.00;;;14.40;74.50;;;;;;10427416;28;20578;-84
2022/03/29 11:55:17;;;;;;;24.92;12.40;;;14.40;75.70;;;;;;10408015;28;20063;-82
2022/03/29 12:00:26;;;;;;;20.75;11.88;;;14.30;75.00;;;;;;10407577;28;20429;-83
2022/03/29 12:05:27;;;;;;;25.50;13.40;;;14.20;74.10;;;;;;10432151;28;20034;-82
2022/03/29 12:10:34;;;;;;;23.05;12.43;;;14.30;74.20;;;;;;10406833;28;20120;-84
2022/03/29 12:15:35;;;;;;;25.42;13.57;;;14.30;74.10;;;;;;10431963;28;20036;-83
2022/03/29 12:20:35;;;;;;;21.75;12.43;;;14.30;73.40;;;;;;10422056;28;20437;-82
2022/03/29 12:25:36;;;;;;;25.13;14.10;;;14.20;73.10;;;;;;10429660;28;20044;-80
2022/03/29 12:30:37;;;;;;;23.42;12.63;;;14.30;73.00;;;;;;10450068;28;20051;-83
2022/03/29 12:35:38;;;;;;;26.45;14.63;;;14.30;71.50;;;;;;10431198;28;20051;-87
2022/03/29 12:40:39;;;;;;;20.75;12.15;;;14.30;71.70;;;;;;10443229;28;20033;-85
2022/03/29 12:45:40;;;;;;;21.30;11.30;;;14.20;70.00;;;;;;10438992;28;20030;-83
2022/03/29 12:50:41;;;;;;;25.77;13.75;;;14.20;69.60;;;;;;10464849;28;20033;-87
2022/03/29 12:55:56;;;;;;;20.35;11.50;;;14.30;71.10;;;;;;10432353;28;20049;-82
2022/03/29 13:00:58;;;;;;;25.45;13.32;;;14.40;69.40;;;;;;10413332;28;20531;-86
2022/03/29 13:06:04;;;;;;;26.38;12.45;;;14.50;67.70;;;;;;10413473;28;20035;-88
2022/03/29 13:11:16;;;;;;;23.52;11.80;;;14.40;67.90;;;;;;10433459;28;20492;-84
2022/03/29 13:16:22;;;;;;;20.00;11.23;;;14.40;65.50;;;;;;10444324;28;20036;-83
2022/03/29 13:21:36;;;;;;;20.57;10.70;;;14.30;66.20;;;;;;10393826;28;20426;-83
2022/03/29 13:26:39;;;;;;;23.80;12.23;;;14.30;66.40;;;;;;10426083;28;20295;-84
2022/03/29 13:31:41;;;;;;;25.75;13.40;;;14.40;67.00;;;;;;10444527;28;20045;-83
2022/03/29 13:36:42;;;;;;;51.13;24.90;;;14.50;67.10;;;;;;10447680;28;20120;-81
2022/03/29 13:41:43;;;;;;;69.78;29.77;;;14.70;65.90;;;;;;10428744;28;20595;-87
2022/03/29 13:46:44;;;;;;;28.40;14.30;;;14.80;66.00;;;;;;10451584;28;20028;-84
2022/03/29 13:51:45;;;;;;;28.38;14.55;;;14.70;65.80;;;;;;10451603;28;20086;-84
2022/03/29 13:56:45;;;;;;;18.10;10.43;;;14.70;66.50;;;;;;10447638;28;20074;-84
2022/03/29 14:01:46;;;;;;;20.88;10.32;;;14.80;66.70;;;;;;10429836;28;20083;-86
2022/03/29 14:06:47;;;;;;;24.52;13.77;;;14.60;65.80;;;;;;10448233;28;20036;-83
2022/03/29 14:11:47;;;;;;;22.08;11.48;;;14.50;66.60;;;;;;10433589;28;20052;-82
2022/03/29 14:16:48;;;;;;;20.73;10.68;;;14.50;66.80;;;;;;10452058;28;20037;-82
2022/03/29 14:21:49;;;;;;;19.95;11.07;;;14.20;67.80;;;;;;10432371;28;20075;-85
2022/03/29 14:26:49;;;;;;;27.30;12.32;;;14.10;67.70;;;;;;10429375;28;20128;-84
2022/03/29 14:31:50;;;;;;;19.90;11.25;;;14.00;68.10;;;;;;10423223;28;20052;-82
2022/03/29 14:36:50;;;;;;;18.38;10.27;;;14.00;67.90;;;;;;10450465;28;20029;-83
2022/03/29 14:41:51;;;;;;;34.55;15.40;;;13.80;67.50;;;;;;10443901;28;20533;-84
2022/03/29 14:46:56;;;;;;;22.73;11.82;;;13.70;68.30;;;;;;10391768;28;20116;-84
2022/03/29 14:51:59;;;;;;;32.40;15.20;;;13.60;67.70;;;;;;10436541;28;20119;-83
2022/03/29 14:57:01;;;;;;;37.03;19.45;;;13.50;68.20;;;;;;10449416;28;20043;-85
2022/03/29 15:02:01;;;;;;;30.95;17.05;;;13.40;68.90;;;;;;10431970;28;20033;-85
2022/03/29 15:07:03;;;;;;;28.30;15.25;;;13.30;69.20;;;;;;10449993;28;20025;-83
2022/03/29 15:12:04;;;;;;;38.92;21.48;;;13.20;69.40;;;;;;10450146;28;20071;-81
2022/03/29 15:17:06;;;;;;;33.63;17.35;;;13.20;69.70;;;;;;10447337;28;20060;-80
2022/03/29 15:22:08;;;;;;;37.95;20.58;;;13.10;70.00;;;;;;10447492;28;20480;-81
2022/03/29 15:27:08;;;;;;;29.50;15.75;;;13.00;71.00;;;;;;10449500;28;20095;-81
2022/03/29 15:32:09;;;;;;;60.45;31.98;;;12.90;70.50;;;;;;10448223;28;20756;-81
2022/03/29 15:37:14;;;;;;;49.92;27.08;;;12.90;71.00;;;;;;10446578;28;20040;-83
2022/03/29 15:42:16;;;;;;;48.80;25.95;;;12.90;70.60;;;;;;10449873;28;20554;-86
2022/03/29 15:47:18;;;;;;;46.08;21.58;;;12.70;70.70;;;;;;10447933;28;20131;-82
2022/03/29 15:52:19;;;;;;;31.55;15.82;;;12.60;70.60;;;;;;10448471;28;20035;-84
2022/03/29 15:57:21;;;;;;;40.45;21.73;;;12.50;70.90;;;;;;10447939;28;20080;-83
2022/03/29 16:02:22;;;;;;;20.73;11.57;;;12.30;70.50;;;;;;10455131;28;20025;-81
2022/03/29 16:07:22;;;;;;;25.65;13.98;;;12.20;70.20;;;;;;10438025;28;20470;-86
2022/03/29 16:12:24;;;;;;;23.50;12.52;;;12.10;70.70;;;;;;10437727;28;20494;-83
2022/03/29 16:17:26;;;;;;;28.42;14.65;;;11.90;71.30;;;;;;10453708;28;20554;-83
2022/03/29 16:22:27;;;;;;;41.78;20.98;;;11.80;71.80;;;;;;10456017;28;20104;-87
2022/03/29 16:27:29;;;;;;;26.25;13.43;;;11.70;72.40;;;;;;10435898;28;20090;-86
2022/03/29 16:32:30;;;;;;;25.88;13.77;;;11.60;72.90;;;;;;10434278;28;20045;-82
2022/03/29 16:37:40;;;;;;;26.25;12.98;;;11.50;73.50;;;;;;10454074;28;20057;-83
2022/03/29 16:42:41;;;;;;;19.98;11.38;;;11.30;74.20;;;;;;10436716;28;20576;-83
2022/03/29 16:47:42;;;;;;;28.95;13.95;;;11.20;78.10;;;;;;10452855;28;20025;-83
2022/03/29 16:53:17;;;;;;;24.70;13.50;;;10.80;81.10;;;;;;10454519;28;20080;-82
2022/03/29 16:58:18;;;;;;;26.93;15.10;;;10.40;84.20;;;;;;10453921;28;20511;-86
2022/03/29 17:03:51;;;;;;;28.40;15.53;;;10.20;85.50;;;;;;10453759;28;20032;-81
2022/03/29 17:14:24;;;;;;;28.17;15.70;;;10.20;85.30;;;;;;10452205;28;20045;-84
2022/03/29 17:19:25;;;;;;;29.33;15.17;;;10.20;85.00;;;;;;10453814;28;20029;-84
2022/03/29 17:24:26;;;;;;;28.57;16.50;;;10.20;85.00;;;;;;10452774;28;20057;-83
2022/03/29 17:29:27;;;;;;;32.10;17.20;;;10.10;85.50;;;;;;10432866;28;20031;-82
2022/03/29 17:34:30;;;;;;;31.67;17.27;;;10.00;86.50;;;;;;10451596;28;20043;-82
2022/03/29 17:39:32;;;;;;;36.30;18.47;;;9.90;87.80;;;;;;10451697;28;20037;-81
2022/03/29 17:44:33;;;;;;;41.50;20.27;;;9.70;90.90;;;;;;10452433;28;20025;-82
2022/03/29 17:49:35;;;;;;;42.83;21.03;;;9.10;99.90;;;;;;10452661;28;20060;-85
2022/03/29 17:54:36;;;;;;;44.37;24.03;;;8.60;99.90;;;;;;10433786;28;20053;-85
2022/03/29 17:59:37;;;;;;;48.70;24.90;;;8.30;99.90;;;;;;10439758;28;20049;-82
2022/03/29 18:04:39;;;;;;;54.63;26.23;;;8.00;99.90;;;;;;10413873;28;20040;-83
2022/03/29 18:09:39;;;;;;;64.63;30.87;;;7.80;99.90;;;;;;10415383;28;20066;-84
2022/03/29 18:14:40;;;;;;;60.60;28.73;;;7.70;99.90;;;;;;10450648;28;20087;-86
2022/03/29 18:19:41;;;;;;;63.77;28.47;;;7.50;99.90;;;;;;10432663;28;20520;-83
2022/03/29 18:24:42;;;;;;;63.27;29.53;;;7.50;99.90;;;;;;10448728;28;20048;-83
2022/03/29 18:29:43;;;;;;;65.47;31.03;;;7.40;99.90;;;;;;10432289;28;20035;-83
2022/03/29 18:34:44;;;;;;;68.93;31.23;;;7.40;99.90;;;;;;10416655;28;20034;-83
2022/03/29 18:39:44;;;;;;;73.17;34.57;;;7.50;99.90;;;;;;10431581;28;20104;-83
2022/03/29 18:44:45;;;;;;;74.00;35.57;;;7.50;99.90;;;;;;10448515;28;20751;-84
2022/03/29 18:49:46;;;;;;;136.77;84.33;;;7.60;99.90;;;;;;10449769;28;20036;-81
2022/03/29 18:54:47;;;;;;;72.43;35.23;;;7.60;99.90;;;;;;10430969;28;20720;-82
2022/03/29 18:59:48;;;;;;;68.77;32.90;;;7.70;99.90;;;;;;10442426;28;20029;-83
2022/03/29 19:04:48;;;;;;;76.63;34.70;;;7.70;99.90;;;;;;10398516;28;20050;-83
2022/03/29 19:09:51;;;;;;;75.97;34.07;;;7.60;99.90;;;;;;10433353;28;20473;-81
2022/03/29 19:14:52;;;;;;;66.43;31.93;;;7.60;99.90;;;;;;10431373;28;20045;-84
2022/03/29 19:19:52;;;;;;;69.37;31.23;;;7.60;99.90;;;;;;10400813;28;20029;-82
2022/03/29 19:24:53;;;;;;;63.93;31.13;;;7.60;99.90;;;;;;10440866;28;20124;-85
2022/03/29 19:29:54;;;;;;;61.40;30.97;;;7.60;99.90;;;;;;10445535;28;20029;-82
2022/03/29 19:34:54;;;;;;;58.43;28.57;;;7.70;99.90;;;;;;10438759;28;20044;-82
2022/03/29 19:39:58;;;;;;;61.67;28.73;;;7.60;99.90;;;;;;10442722;28;20032;-82
2022/03/29 19:45:05;;;;;;;57.27;27.63;;;7.60;99.90;;;;;;10442129;28;20083;-84
2022/03/29 19:50:11;;;;;;;47.33;24.40;;;7.50;99.90;;;;;;10462676;28;20033;-81
2022/03/29 19:55:11;;;;;;;54.25;24.85;;;7.40;99.90;;;;;;10459554;28;20033;-82
2022/03/29 20:00:13;;;;;;;57.33;28.00;;;7.30;99.90;;;;;;10455171;28;20376;-83
2022/03/29 20:05:14;;;;;;;53.53;26.07;;;7.20;99.90;;;;;;10462559;28;20024;-83
2022/03/29 20:10:14;;;;;;;60.63;30.30;;;7.10;99.90;;;;;;10461192;28;20380;-82
2022/03/29 20:15:15;;;;;;;64.60;28.40;;;7.00;99.90;;;;;;10460221;28;20025;-84
2022/03/29 20:20:16;;;;;;;58.43;26.80;;;7.00;99.90;;;;;;10461809;28;20499;-83
2022/03/29 20:25:16;;;;;;;51.27;26.10;;;6.90;99.90;;;;;;10461659;28;20494;-83
2022/03/29 20:30:17;;;;;;;54.03;27.57;;;6.90;99.90;;;;;;10460964;28;20039;-85
2022/03/29 20:35:18;;;;;;;54.93;26.30;;;6.80;99.90;;;;;;10461134;28;20103;-83
2022/03/29 20:40:19;;;;;;;47.37;25.27;;;6.80;99.90;;;;;;10461831;28;20032;-84
2022/03/29 20:45:21;;;;;;;46.27;25.30;;;6.80;99.90;;;;;;10457666;28;20421;-84
2022/03/29 20:50:22;;;;;;;53.20;27.57;;;6.90;99.90;;;;;;10454613;28;20384;-84
2022/03/29 20:55:23;;;;;;;52.33;26.20;;;6.90;99.90;;;;;;10454827;28;20120;-83
2022/03/29 21:00:23;;;;;;;57.33;28.20;;;6.90;99.90;;;;;;10453109;28;20044;-82
2022/03/29 21:05:24;;;;;;;55.73;27.53;;;6.90;99.90;;;;;;10453071;28;20037;-82
2022/03/29 21:10:26;;;;;;;60.87;27.10;;;6.90;99.90;;;;;;10454885;28;20029;-83
2022/03/29 21:15:26;;;;;;;56.83;27.63;;;6.80;99.90;;;;;;10453828;28;20025;-83
2022/03/29 21:20:28;;;;;;;63.40;28.93;;;6.80;99.90;;;;;;10453857;28;20036;-84
2022/03/29 21:25:28;;;;;;;63.53;29.03;;;6.70;99.90;;;;;;10448809;28;20420;-85
2022/03/29 21:30:29;;;;;;;50.77;25.77;;;6.70;99.90;;;;;;10417593;28;20029;-85
2022/03/29 21:35:30;;;;;;;58.30;27.00;;;6.60;99.90;;;;;;10413365;28;20021;-83
2022/03/29 21:40:30;;;;;;;51.83;26.83;;;6.60;99.90;;;;;;10428488;28;20032;-84
2022/03/29 21:45:31;;;;;;;53.37;25.80;;;6.60;99.90;;;;;;10406424;28;20025;-82
2022/03/29 21:50:32;;;;;;;56.10;26.43;;;6.60;99.90;;;;;;10411275;28;20425;-85
2022/03/29 21:55:33;;;;;;;59.30;28.00;;;6.50;99.90;;;;;;10409636;28;20381;-84
2022/03/29 22:00:39;;;;;;;51.33;26.50;;;6.30;99.90;;;;;;10416250;28;20035;-84
2022/03/29 22:05:42;;;;;;;65.00;29.33;;;6.30;99.90;;;;;;10434920;28;20572;-85
2022/03/29 22:10:43;;;;;;;57.77;28.00;;;6.30;99.90;;;;;;10451739;28;20734;-83
2022/03/29 22:15:43;;;;;;;64.37;28.83;;;6.20;99.90;;;;;;10450953;28;20025;-87
2022/03/29 22:20:44;;;;;;;66.03;30.73;;;6.20;99.90;;;;;;10451954;28;20384;-83
2022/03/29 22:25:45;;;;;;;150.10;62.67;;;6.00;99.90;;;;;;10451597;28;20052;-82
2022/03/29 22:30:45;;;;;;;147.17;60.77;;;6.00;99.90;;;;;;10466292;28;20040;-85
2022/03/29 22:35:46;;;;;;;150.67;64.17;;;6.00;99.90;;;;;;10451335;28;20029;-82
2022/03/29 22:40:46;;;;;;;129.27;55.47;;;5.90;99.90;;;;;;10450930;28;20452;-82
2022/03/29 22:45:47;;;;;;;111.23;52.43;;;5.90;99.90;;;;;;10450103;28;20040;-84
2022/03/29 22:50:48;;;;;;;109.03;51.40;;;5.80;99.90;;;;;;10450315;28;20044;-83
2022/03/29 22:55:48;;;;;;;108.37;48.20;;;5.80;99.90;;;;;;10451069;28;20420;-81
2022/03/29 23:00:49;;;;;;;100.20;46.73;;;5.70;99.90;;;;;;10449646;28;20397;-83
2022/03/29 23:05:50;;;;;;;106.10;50.30;;;5.60;99.90;;;;;;10450150;28;20032;-82
2022/03/29 23:10:50;;;;;;;98.67;48.40;;;5.50;99.90;;;;;;10449373;28;20049;-83
2022/03/29 23:15:51;;;;;;;96.53;47.00;;;5.40;99.90;;;;;;10449871;28;20039;-82
2022/03/29 23:20:51;;;;;;;100.67;47.93;;;5.30;99.90;;;;;;10449010;28;20491;-82
2022/03/29 23:25:52;;;;;;;102.27;47.40;;;5.10;99.90;;;;;;10450047;28;20057;-83
2022/03/29 23:30:52;;;;;;;119.00;55.70;;;5.00;99.90;;;;;;10448582;28;20090;-82
2022/03/29 23:35:53;;;;;;;119.37;56.30;;;5.00;99.90;;;;;;10449065;28;20021;-81
2022/03/29 23:40:54;;;;;;;108.87;50.27;;;4.90;99.90;;;;;;10431190;28;20036;-82
2022/03/29 23:45:54;;;;;;;103.17;45.60;;;4.80;99.90;;;;;;10448601;28;20108;-80
2022/03/29 23:50:55;;;;;;;102.97;45.97;;;4.80;99.90;;;;;;10448054;28;20069;-82
2022/03/29 23:55:56;;;;;;;104.10;46.30;;;4.80;99.90;;;;;;10431754;28;20028;-84
